KIXA

Halifax-Northampton Regional Airport

Roanoke Rapids, North Carolina, USA
METAR KIXA 181120Z AUTO 02003KT 10SM CLR 07/05 A3037 RMK AO2
Observed Flight Rules
Oct-18 @ 11:20 UTC (11 minutes ago) Visual Flight Rules
Wind Visibility Clouds
20° at 3 knots 10 miles
  • Clear skies
Temperatures Readings
Current 7°C / 45°F
Dewpoint 5°C / 41°F
Humidity 87%
Altimeter 30.37" Hg
Pressure 1028 hPa
Elevation 44
METAR KIXA 181120Z AUTO 02003KT 10SM CLR 07/05 A3037 RMK AO2
Observed Flight Rules
Oct-18 @ 11:20 UTC
(11 minutes ago)
VFR
Wind Visibility
20° at 3 knots 10 miles
Clouds
  • Clear skies
Temperature Dewpoint
7°C / 45°F 5°C / 41°F
Humidity Altimeter Pressure
87% 30.37" Hg 1028 hPa